»·PEaware :: N24775 KCMA-KSNA

N24775 :: KCMA-KSNA

FLIGHT INFORMATION

Flight Status: Arrived
Operator: Privately registered:
United States
More flights under this callsign
Pilot: Juan S. (26712)
Aircraft: CESSNA 172 SKYHAWK
(C172)
More flights by this aircraft type
Origin: KCMA Camarillo
United States
Destination: KSNA John Wayne-Orange Co
United States
More flights between these airports :: More routes between these airports
Route: COASTAL ROUTE BRAVO TRANSITION
File this flight plan on PilotEdge
Remarks: CAT 10 rating
Altitude:
(Current/Filed)
5,500ft
Speed:
(Current/Filed)
110kts
Departed: 29-Oct-19 07:56 PM
Arrived: 29-Oct-19 08:43 PM
Distance/Time
Traveled:
69nm/0:46
Distance/Time
To Go:
Arrived

Flight Plot

Page will automatically refresh every two minutes.

Flight plan parsing failed; only flown route is shown


Map Options




Map Legend


Flown Route
Filed Route
Departure Airport
Arrival Airport
Navaid (VOR, NDB)
Fix

Horizontal Profiles

Position Reports

Time Latitude Longitude Heading Altitude Ground
Speed
29-Oct-19 19:37 34.210350 -119.076468 90 81ft 0kts
29-Oct-19 19:38 34.210350 -119.076468 90 81ft 0kts
29-Oct-19 19:39 34.210350 -119.076468 90 81ft 0kts
29-Oct-19 19:40 34.210350 -119.076468 90 81ft 0kts
29-Oct-19 19:41 34.210350 -119.076468 90 81ft 0kts
29-Oct-19 19:42 34.210350 -119.076468 90 81ft 0kts
29-Oct-19 19:43 34.210350 -119.076468 90 81ft 0kts
29-Oct-19 19:44 34.210350 -119.076468 90 81ft 0kts
29-Oct-19 19:45 34.210350 -119.076468 90 81ft 0kts
29-Oct-19 19:46 34.210350 -119.076468 90 81ft 0kts
29-Oct-19 19:47 34.210350 -119.076468 90 81ft 0kts
29-Oct-19 19:48 34.210841 -119.076098 325 81ft 4kts
29-Oct-19 19:49 34.210909 -119.080551 270 81ft 14kts
29-Oct-19 19:50 34.211009 -119.084569 315 81ft 4kts
29-Oct-19 19:51 34.212857 -119.084618 2 81ft 0kts
29-Oct-19 19:52 34.212858 -119.084618 2 81ft 0kts
29-Oct-19 19:53 34.212857 -119.084618 2 81ft 0kts
29-Oct-19 19:54 34.213469 -119.084606 348 81ft 7kts
29-Oct-19 19:55 34.214152 -119.101498 275 662ft 74kts
29-Oct-19 19:56 34.205218 -119.097412 76 1716ft 78kts
29-Oct-19 19:57 34.208044 -119.071715 71 2693ft 80kts
29-Oct-19 19:58 34.207719 -119.044861 91 3652ft 81kts
29-Oct-19 19:59 34.202592 -119.017701 116 4516ft 87kts
29-Oct-19 20:00 34.200186 -118.990345 82 5336ft 86kts
29-Oct-19 20:01 34.200677 -118.958722 91 5652ft 102kts
29-Oct-19 20:02 34.197411 -118.922664 97 5516ft 110kts
29-Oct-19 20:03 34.190055 -118.888124 93 5446ft 102kts
29-Oct-19 20:04 34.190564 -118.853505 90 5561ft 105kts
29-Oct-19 20:05 34.183934 -118.817962 108 5594ft 115kts
29-Oct-19 20:06 34.177602 -118.780621 94 5680ft 113kts
29-Oct-19 20:07 34.178421 -118.741989 79 5572ft 116kts
29-Oct-19 20:08 34.180604 -118.703801 78 5434ft 112kts
29-Oct-19 20:09 34.185887 -118.668377 79 5461ft 106kts
29-Oct-19 20:10 34.188508 -118.633790 80 5475ft 101kts
29-Oct-19 20:11 34.188777 -118.600198 85 5456ft 99kts
29-Oct-19 20:12 34.179608 -118.569587 137 5517ft 107kts
29-Oct-19 20:13 34.155504 -118.548182 138 5531ft 109kts
29-Oct-19 20:14 34.130132 -118.527896 149 5508ft 111kts
29-Oct-19 20:15 34.101435 -118.512682 155 5520ft 112kts
29-Oct-19 20:16 34.071925 -118.499018 155 5485ft 113kts
29-Oct-19 20:17 34.042153 -118.485182 155 5439ft 114kts
29-Oct-19 20:18 34.012844 -118.470653 158 5471ft 116kts
29-Oct-19 20:19 33.982177 -118.456335 161 5544ft 123kts
29-Oct-19 20:20 33.949959 -118.442534 150 5492ft 121kts
29-Oct-19 20:21 33.922019 -118.420101 141 5483ft 120kts
29-Oct-19 20:22 33.895406 -118.395893 144 5484ft 122kts
29-Oct-19 20:23 33.866517 -118.375482 155 5493ft 118kts
29-Oct-19 20:24 33.843841 -118.347582 134 5482ft 118kts
29-Oct-19 20:26 33.822302 -118.318096 141 5488ft 117kts
29-Oct-19 20:27 33.797630 -118.293067 150 5500ft 114kts
29-Oct-19 20:28 33.774333 -118.266727 136 5510ft 116kts
29-Oct-19 20:29 33.752583 -118.237744 140 5510ft 115kts
29-Oct-19 20:30 33.741782 -118.201523 100 5139ft 115kts
29-Oct-19 20:31 33.733486 -118.164432 105 4752ft 114kts
29-Oct-19 20:32 33.721353 -118.129460 111 4404ft 113kts
29-Oct-19 20:33 33.707813 -118.095044 126 3981ft 116kts
29-Oct-19 20:34 33.689479 -118.064758 116 3496ft 111kts
29-Oct-19 20:35 33.684902 -118.029509 85 2979ft 103kts
29-Oct-19 20:36 33.683150 -117.994026 93 2174ft 104kts
29-Oct-19 20:37 33.677199 -117.960294 104 1391ft 100kts
29-Oct-19 20:38 33.670684 -117.928157 96 1066ft 99kts
29-Oct-19 20:39 33.675325 -117.896273 71 986ft 97kts
29-Oct-19 20:40 33.693074 -117.873510 32 867ft 94kts
29-Oct-19 20:41 33.698432 -117.857512 176 429ft 60kts
29-Oct-19 20:42 33.682574 -117.864504 206 115ft 61kts
29-Oct-19 20:42 33.675873 -117.868872 246 60ft 19kts
29-Oct-19 20:44 33.676396 -117.870792 301 60ft 0kts

Navigation Log

Ident Type
Flight plan parsing failed, navigation log unavailable